METAR Data
IDs: Format: Raw Decoded Include TAF

Data at: 1420 UTC 21 Apr 2021

METAR for:KIOW (Iowa City Muni, IA, US)
Text:KIOW 211352Z AUTO 31003KT 10SM CLR 03/M07 A3020 RMK AO2 SLP231 T00281067
Temperature: 2.8°C ( 37°F)
Dewpoint: -6.7°C ( 20°F) [RH = 50%]
Pressure (altimeter):30.20 inches Hg (1022.8 mb) [Sea level pressure: 1023.1 mb]
Winds:from the NW (310 degrees) at 3 MPH (3 knots; 1.5 m/s)
Visibility:10 or more sm (16+ km)
Ceiling:at least 12,000 feet AGL
Clouds:sky clear below 12,000 feet AGL
QC Flag:automated observation with no human augmentation